Tiempo atmosférico en la estación meteorológica de Valderredible, Cubillo de Ebro, Cantabria (765 m.)



Fecha
DESCASC
Temp. máxima en grados centígrados (hora)
DESCASC
Temp. mínima en grados centígrados (hora)
DESCASC
Temp. media en grados centígrados
DESCASC
Racha de viento máxima en m/sg (hora)
DESCASC
Velocidad máxima media en intervalos de 10 minutos(hora)
DESCASC
Precipitaciones diarias en mm
DESCASC
Precipitaciones de 00:00 a 06:00 en mm
DESCASC
Precipitaciones de 06:00 a 12:00 en mm
DESCASC
Precipitaciones de 12:00 a 18:00 en mm
DESCASC
Precipitaciones de 18:00 a 24:00 en mm
DESCASC
22-04-2019 16.5 (15:30) 5.5 (04:40) 11 8.61 (13:20) 4.17 (12:40) 0 0 0 0 0
21-04-2019 14.9 (12:40) 0.4 (07:40) 7.6 9.17 (14:00) 5 (12:40) 0.4 0 0 0 0.4
20-04-2019 19.3 (15:20) 3.1 (07:30) 11.2 10.83 (15:40) 5 (12:50) 0 0 0 0 0
19-04-2019 16.6 (15:30) 8.2 (00:10) 12.4 15.83 (03:10) 9.17 (15:00) 2.8 2 0.8 0 0
18-04-2019 12.1 (03:10) 8.3 (00:00) 10.2 8.89 (03:40) 5.28 (01:20) 19.8 4.6 1.6 6.4 7.2
17-04-2019 19 (15:00) 6.8 (00:00) 12.9 11.11 (14:40) 6.39 (19:00) 3.8 0 0 0 3.8
16-04-2019 18.4 (17:50) 4.4 (00:00) 11.4 8.06 (14:00) 3.61 (14:50) 0 0 0 0 0
15-04-2019 21.8 (14:10) 6.7 (00:00) 14.2 21.11 (15:20) 11.39 (15:20) 0.4 0 0 0.2 0.2
14-04-2019 22.1 (15:20) 5 (00:00) 13.6 5.83 (15:40) 3.61 (17:00) 0 0 0 0 0
13-04-2019 20.4 (17:10) -3.5 (-00:0) 8.4 8.33 (17:20) 5.28 (17:20) 0 0 0 0 0
12-04-2019 16.8 (17:40) -1.9 (-00:0) 7.4 7.78 (16:00) 3.89 (15:50) 0 0 0 0 0
11-04-2019 11.4 (16:50) -0.8 (-00:0) 5.3 11.11 (17:40) 5.83 (18:10) 0.2 0.2 0 0 0
10-04-2019 12.3 (14:30) 0.2 (00:00) 6.3 8.89 (16:20) 5 (16:40) 0.8 0 0 0.8 0
09-04-2019 11.7 (16:40) 1.7 (00:00) 6.7 10.28 (17:30) 6.11 (13:50) 1.6 0 0 1 0.6
08-04-2019 15.1 (17:10) 4.6 (00:00) 9.9 10.83 (15:00) 6.39 (15:00) 0.4 0.4 0 0 0
07-04-2019 12.9 (16:50) -0.5 (-00:0) 6.2 11.67 (20:00) 6.39 (20:00) 0.8 0 0 0 0.8
06-04-2019 9.2 (14:50) -2.1 (-00:0) 3.5 12.78 (12:10) 7.22 (16:00) 3.6 0 0 0.8 2.8
05-04-2019 9.4 (14:30) 1.2 (00:00) 5.3 10.28 (20:10) 5.83 (20:10) 1.6 0.8 0.8 0 0
04-04-2019 11.1 (17:00) -7 (-00:0) 2.1 13.61 (20:10) 7.22 (14:50) 0.4 0 0 0 0.4
03-04-2019 7.7 (17:00) -0.3 (00:00) 3.7 12.22 (17:20) 6.94 (18:10) 1.4 0 0.2 1.2 0
02-04-2019 14.3 (15:00) -1.2 (-00:0) 6.6 9.44 (18:10) 5.83 (18:30) -- 0 0 -- 0
01-04-2019 16.2 (17:00) -0.9 (-00:0) 7.7 8.06 (17:10) 5 (17:10) 0 0 0 0 0
31-03-2019 18 (17:20) -1.6 (-00:0) 8.2 10.28 (13:50) 5.83 (14:00) 0 0 0 0 0
30-03-2019 19.1 (16:10) -1.6 (-00:0) 8.8 6.11 (19:10) 3.89 (16:20) 0 0 0 0 0
29-03-2019 19.1 (16:10) -3 (-00:0) 8.1 8.33 (17:30) 3.89 (14:00) 0 0 0 0 0
28-03-2019 15.9 (16:10) -5.2 (-00:0) 5.3 8.89 (14:40) 5 (14:30) 0 0 0 0 0
27-03-2019 15.2 (14:10) -3.8 (-00:0) 5.7 10.28 (16:10) 5.56 (16:00) 0 0 0 0 0

Gráficas

Temp. máximas Temp. mínimas Temp. medias Precipitaciones Rachas de viento máximas Velocidades máximas media en intervalos de 10 minutos

Datos horarios

Fecha y hora oficial Temperatura (ºC) Velocidad del viento (km/h) Dirección del viento Racha (km/h) Dirección de racha Precipitación (mm) Presión (hPa) Tendencia (hPa) Humedad (%)
2019-04-25 23:00:00 6.3 19 Sudoeste 39 Sudoeste 0 -- -- 78
2019-04-25 22:00:00 6.8 19 Sudoeste 36 Sudoeste 0 -- -- 75
2019-04-25 21:00:00 6.6 21 Sudoeste 45 Oeste 0 -- -- 77
2019-04-25 20:00:00 6.2 23 Oeste 63 Oeste 0 -- -- 82
2019-04-25 19:00:00 10.5 30 Sudoeste 67 Sudoeste 0 -- -- 54
2019-04-25 18:00:00 12.4 31 Sudoeste 62 Sudoeste 0 -- -- 48
2019-04-25 17:00:00 11.5 26 Sudoeste 57 Sudoeste 0 -- -- 57
2019-04-25 16:00:00 11 26 Sudoeste 59 Sudoeste 0 -- -- 61
2019-04-25 15:00:00 11.7 28 Sudoeste 54 Sur 0 -- -- 55
2019-04-25 14:00:00 10.6 28 Sudoeste 57 Sudoeste 0 -- -- 57
2019-04-25 13:00:00 9.4 23 Sudoeste 46 Sudoeste 0 -- -- 62
2019-04-25 12:00:00 7.6 23 Sudoeste 45 Sudoeste 0 -- -- 70
2019-04-25 11:00:00 6.6 26 Sudoeste 53 Sudoeste 0 -- -- 74
2019-04-25 10:00:00 6 23 Sudoeste 49 Sudoeste 0.2 -- -- 78
2019-04-25 09:00:00 5 24 Sudoeste 51 Sudoeste 0 -- -- 79
2019-04-25 08:00:00 4.1 17 Sudoeste 40 Sudoeste 0 -- -- 83
2019-04-25 07:00:00 4 19 Sudoeste 46 Sudoeste 0 -- -- 83
2019-04-25 06:00:00 4.7 14 Sudoeste 42 Sudoeste 0 -- -- 83
2019-04-25 05:00:00 5.3 14 Sudoeste 37 Sudoeste 0 -- -- 84
2019-04-25 04:00:00 5.4 10 Sudoeste 31 Oeste 0 -- -- 86
2019-04-25 03:00:00 4.9 10 Oeste 23 Sudoeste 0 -- -- 87
2019-04-25 02:00:00 5.6 10 Oeste 39 Oeste 0.2 -- -- 88
2019-04-25 01:00:00 6.1 18 Oeste 34 Sudoeste 0.4 -- -- 87
2019-04-25 00:00:00 6.8 14 Sudoeste 45 Sur 1.2 -- -- 87
2019-04-24 23:00:00 7.6 20 Sudoeste 45 Sur 0.4 -- -- 83
2019-04-24 22:00:00 7.8 20 Sudoeste 45 Sudoeste 0 -- -- 82
2019-04-24 21:00:00 8.2 25 Sudoeste 47 Sudoeste 0.4 -- -- 80
2019-04-24 20:00:00 8.8 21 Sudoeste 43 Sur 0 -- -- 82
2019-04-24 19:00:00 8.4 21 Sudoeste 49 Sudoeste 1 -- -- 80
2019-04-24 18:00:00 8.7 24 Oeste 57 Sudoeste 2.2 -- -- 86
2019-04-24 17:00:00 9 23 Sudoeste 54 Sudoeste 2.6 -- -- 85
2019-04-24 16:00:00 11.9 32 Sudoeste 66 Sudoeste 0.2 -- -- 74
2019-04-24 15:00:00 10.9 23 Sudoeste 51 Sudoeste 0.2 -- -- 82
2019-04-24 14:00:00 9 23 Sudoeste 44 Sudoeste 0.6 -- -- 85
2019-04-24 13:00:00 5.9 11 Sudoeste 28 Sudoeste 0.2 -- -- 90
2019-04-24 12:00:00 3.7 10 Sudeste 32 Sudeste 1 -- -- 88
2019-04-24 11:00:00 3.1 14 Sudeste 24 Sudeste 1.6 -- -- 89
2019-04-24 10:00:00 3.3 9 Sudeste 23 Sudoeste 1.4 -- -- 87
2019-04-24 09:00:00 3.8 9 Sur 30 Sur 0 -- -- 85
2019-04-24 08:00:00 4.2 9 Sur 37 Sudoeste 0 -- -- 82
2019-04-24 07:00:00 4.2 15 Sudoeste 47 Sudoeste 0 -- -- 77
2019-04-24 06:00:00 3.9 14 Sudoeste 32 Sudoeste 0 -- -- 80
2019-04-24 05:00:00 4.3 13 Sudoeste 33 Sudoeste 0 -- -- 79
2019-04-24 04:00:00 4.7 14 Sudoeste 32 Sudoeste 0 -- -- 79
2019-04-24 03:00:00 5.4 10 Sudoeste 23 Sudoeste 0 -- -- 79
2019-04-24 02:00:00 5.5 13 Sudoeste 27 Sudoeste 0 -- -- 76
2019-04-24 01:00:00 5.2 4 Norte 9 Norte 0 -- -- 71
2019-04-24 00:00:00 4.7 3 Sudoeste 13 Oeste 0 -- -- 80
2019-04-23 23:00:00 6.1 3 Noroeste 12 Oeste 0 -- -- 77
2019-04-23 22:00:00 7.2 2 Sudeste 10 Sudoeste 0 -- -- 75
2019-04-23 21:00:00 8.6 5 Sur 37 Oeste 0 -- -- 62
2019-04-23 20:00:00 10 22 Oeste 52 Sudoeste 0 -- -- 57
2019-04-23 19:00:00 11.8 13 Sudoeste 33 Sudoeste 0 -- -- 45
2019-04-23 18:00:00 12.6 15 Sudoeste 30 Oeste 0 -- -- 51
2019-04-23 17:00:00 11.9 16 Sudoeste 36 Sudoeste 0 -- -- 51
2019-04-23 16:00:00 10.1 22 Sudoeste 33 Sudoeste 0 -- -- 62
2019-04-23 15:00:00 9.2 20 Sudoeste 36 Sudoeste 0 -- -- 73
2019-04-23 14:00:00 10.1 15 Sudoeste 33 Sur 0 -- -- 68
2019-04-23 13:00:00 8.6 18 Sudoeste 41 Sudoeste 0 -- -- 75
2019-04-23 12:00:00 9.2 14 Sudoeste 27 Sudoeste 0 -- -- 75
2019-04-23 11:00:00 9 11 Sudoeste 29 Sudoeste 0 -- -- 79
2019-04-23 10:00:00 8.1 10 Sudoeste 19 Sudoeste 0.2 -- -- 85
2019-04-23 09:00:00 8 5 Oeste 16 Sudoeste 1.2 -- -- 88
2019-04-23 08:00:00 9.2 9 Oeste 19 Oeste 0.4 -- -- 88
2019-04-23 07:00:00 9.5 9 Sur 19 Sur 0 -- -- 85
2019-04-23 06:00:00 9.3 7 Sur 23 Sudoeste 0.2 -- -- 84
2019-04-23 05:00:00 9.2 12 Sudoeste 25 Sudoeste 0.2 -- -- 83
2019-04-23 04:00:00 9.7 6 Sudoeste 20 Sudoeste 0.2 -- -- 84
2019-04-23 03:00:00 10.6 7 Sur 18 Sur 0 -- -- 78
2019-04-23 02:00:00 10.8 6 Sudeste 19 Sudeste 0 -- -- 75
2019-04-23 01:00:00 9.4 8 Sudeste 19 Sur 0 -- -- 79
2019-04-23 00:00:00 6.5 2 Noroeste 9 Noroeste 0 -- -- 87
2019-04-22 23:00:00 7.5 4 Oeste 7 Sudoeste 0 -- -- 80
2019-04-22 22:00:00 10.4 0 Calma 11 Este 0 -- -- 69
2019-04-22 21:00:00 13 8 Este 14 Sudeste 0 -- -- 61
2019-04-22 20:00:00 14.6 9 Sudeste 22 Sur 0 -- -- 54
2019-04-22 19:00:00 15.1 12 Sur 26 Sur 0 -- -- 51
2019-04-22 18:00:00 14.8 11 Sur 28 Sudeste 0 -- -- 54
2019-04-22 17:00:00 16.1 12 Sur 27 Sudeste 0 -- -- 49
2019-04-22 16:00:00 16.1 11 Sur 27 Sudoeste 0 -- -- 49
2019-04-22 15:00:00 15.7 15 Sur 31 Sudoeste 0 -- -- 54
2019-04-22 14:00:00 13.9 11 Sudoeste 31 Sudoeste 0 -- -- 60
2019-04-22 13:00:00 13.9 12 Sur 28 Sudoeste 0 -- -- 58
2019-04-22 12:00:00 13.5 13 Sur 21 Sur 0 -- -- 58
2019-04-22 11:00:00 10.8 4 Oeste 10 Oeste 0 -- -- 79
2019-04-22 10:00:00 8.4 3 Este 7 Oeste 0 -- -- 97
2019-04-22 09:00:00 6.6 2 Noroeste 5 Oeste 0 -- -- 98
2019-04-22 08:00:00 5.8 2 Nordeste 6 Oeste 0 -- -- 98
2019-04-22 07:00:00 5.7 4 Oeste 9 Oeste 0 -- -- 97
2019-04-22 06:00:00 5.7 3 Oeste 5 Oeste 0 -- -- 97
2019-04-22 05:00:00 5.6 3 Nordeste 10 Oeste 0 -- -- 96
2019-04-22 04:00:00 5.6 6 Noroeste 9 Noroeste 0 -- -- 95
2019-04-22 03:00:00 6.6 3 Oeste 4 Oeste 0 -- -- 93
2019-04-22 02:00:00 7.7 3 Noroeste 5 Noroeste 0 -- -- 93
2019-04-22 01:00:00 7.9 4 Nordeste 8 Noroeste 0 -- -- 93
2019-04-22 00:00:00 8.2 3 Noroeste 9 Norte 0 -- -- 91
2019-04-21 23:00:00 8.5 5 Norte 10 Norte 0.2 -- -- 90
2019-04-21 22:00:00 9.2 3 Nordeste 11 Norte 0.2 -- -- 87
2019-04-21 21:00:00 9.6 4 Este 17 Norte 0 -- -- 86
2019-04-21 20:00:00 10.2 7 Norte 21 Noroeste 0 -- -- 78
2019-04-21 19:00:00 11 14 Noroeste 26 Norte 0 -- -- 74
2019-04-21 18:00:00 11.9 13 Norte 33 Norte 0 -- -- 70
2019-04-21 17:00:00 12 9 Norte 28 Norte 0 -- -- 68
2019-04-21 16:00:00 12.5 13 Nordeste 31 Nordeste 0 -- -- 65
2019-04-21 15:00:00 14.2 15 Norte 30 Nordeste 0 -- -- 56
2019-04-21 14:00:00 14 18 Norte 33 Norte 0 -- -- 54
2019-04-21 13:00:00 14.6 15 Norte 29 Noroeste 0 -- -- 52
2019-04-21 12:00:00 13.6 15 Noroeste 27 Noroeste 0 -- -- 54
2019-04-21 11:00:00 12.9 13 Norte 27 Norte 0 -- -- 53
2019-04-21 10:00:00 9.5 7 Este 12 Este 0 -- -- 71
2019-04-21 09:00:00 4 3 Este 6 Oeste 0 -- -- 95
2019-04-21 08:00:00 0.6 0 Calma 6 Oeste 0 -- -- 96
2019-04-21 07:00:00 0.7 3 Oeste 5 Oeste 0 -- -- 94
2019-04-21 06:00:00 1.5 4 Oeste 8 Oeste 0 -- -- 93
2019-04-21 05:00:00 2.5 5 Oeste 7 Oeste 0 -- -- 92
2019-04-21 04:00:00 3.4 4 Oeste 9 Noroeste 0 -- -- 89
2019-04-21 03:00:00 4.9 2 Sudoeste 6 Este 0 -- -- 84
2019-04-21 02:00:00 6.8 0 Calma 12 Nordeste 0 -- -- 82
2019-04-21 01:00:00 7.5 4 Nordeste 9 Norte 0 -- -- 79
2019-04-21 00:00:00 8.7 6 Oeste 17 Noroeste 0 -- -- 69
2019-04-20 23:00:00 9.5 10 Noroeste 20 Noroeste 0 -- -- 68
2019-04-20 22:00:00 10.5 7 Norte 21 Norte 0 -- -- 66
2019-04-20 21:00:00 12.7 5 Norte 24 Noroeste 0 -- -- 59
2019-04-20 20:00:00 15 14 Norte 31 Nordeste 0 -- -- 53
2019-04-20 19:00:00 16.9 14 Norte 33 Norte 0 -- -- 48
2019-04-20 18:00:00 18 14 Norte 34 Norte 0 -- -- 44
2019-04-20 17:00:00 18.7 15 Norte 34 Norte 0 -- -- 44
2019-04-20 16:00:00 18.9 17 Nordeste 39 Norte 0 -- -- 46
2019-04-20 15:00:00 19 15 Nordeste 31 Noroeste 0 -- -- 43
2019-04-20 14:00:00 18.4 16 Norte 37 Nordeste 0 -- -- 42
2019-04-20 13:00:00 17.1 16 Norte 32 Norte 0 -- -- 48
2019-04-20 12:00:00 16.3 16 Norte 36 Norte 0 -- -- 50
2019-04-20 11:00:00 15.1 14 Norte 34 Norte 0 -- -- 57
2019-04-20 10:00:00 12.7 12 Norte 27 Este 0 -- -- 72
2019-04-20 09:00:00 5.4 3 Este 10 Sudeste 0 -- -- 97
2019-04-20 08:00:00 3.3 0 Calma 6 Noroeste 0 -- -- 96
2019-04-20 07:00:00 3.8 0 Calma 6 Noroeste 0 -- -- 95
2019-04-20 06:00:00 4.7 2 Oeste 6 Este 0 -- -- 95
2019-04-20 05:00:00 5 2 Este 7 Noroeste 0 -- -- 93
2019-04-20 04:00:00 6 3 Este 10 Nordeste 0 -- -- 93
2019-04-20 03:00:00 6.5 0 Calma 5 Nordeste 0 -- -- 91
2019-04-20 02:00:00 7.4 3 Nordeste 7 Nordeste 0 -- -- 88
2019-04-20 01:00:00 9.4 0 Calma 10 Este 0 -- -- 83
2019-04-20 00:00:00 10.7 0 Calma 13 Nordeste 0 -- -- 80
2019-04-19 23:00:00 11.6 6 Norte 11 Norte 0 -- -- 78
2019-04-19 22:00:00 12.5 9 Norte 16 Norte 0 -- -- 76
2019-04-19 21:00:00 13.4 8 Norte 15 Este 0 -- -- 71
2019-04-19 20:00:00 14.7 7 Nordeste 27 Nordeste 0 -- -- 61
2019-04-19 19:00:00 15.5 14 Nordeste 31 Este 0 -- -- 59
2019-04-19 18:00:00 15.5 17 Nordeste 37 Este 0 -- -- 56
2019-04-19 17:00:00 15.7 20 Este 35 Nordeste 0 -- -- 53
2019-04-19 16:00:00 16.1 22 Nordeste 46 Sudeste 0 -- -- 57
2019-04-19 15:00:00 15.8 33 Este 55 Este 0 -- -- 56
2019-04-19 14:00:00 15.1 21 Este 37 Este 0 -- -- 62
2019-04-19 13:00:00 11 6 Noroeste 17 Este 0 -- -- 85
2019-04-19 12:00:00 9.9 9 Nordeste 34 Este 0.4 -- -- 83
2019-04-19 11:00:00 9.8 18 Este 32 Este 0 -- -- 84
2019-04-19 10:00:00 9.5 17 Este 33 Este 0 -- -- 84
2019-04-19 09:00:00 8.9 17 Este 30 Este 0 -- -- 87
2019-04-19 08:00:00 8.5 14 Este 30 Este 0.4 -- -- 88
2019-04-19 07:00:00 9 17 Este 30 Este 0 -- -- 85
2019-04-19 06:00:00 9.3 18 Este 34 Este 0 -- -- 84
2019-04-19 05:00:00 9.5 23 Este 38 Este 0 -- -- 83
2019-04-19 04:00:00 9.6 17 Este 57 Nordeste 0.2 -- -- 81
2019-04-19 03:00:00 10 27 Este 53 Este 0 -- -- 80
2019-04-19 02:00:00 9.4 17 Nordeste 28 Nordeste 0.8 -- -- 90
2019-04-19 01:00:00 8.4 4 Nordeste 14 Nordeste 1 -- -- 96
2019-04-19 00:00:00 8.3 0 Calma 6 Sudoeste 1.8 -- -- 94
2019-04-18 23:00:00 8.8 2 Sudoeste 19 Nordeste 1.2 -- -- 90
2019-04-18 22:00:00 9.2 12 Nordeste 24 Nordeste 0.2 -- -- 87
2019-04-18 21:00:00 9.5 13 Nordeste 22 Nordeste 0.2 -- -- 88
2019-04-18 20:00:00 9.2 3 Este 5 Sudoeste 0.8 -- -- 95
2019-04-18 19:00:00 9.1 3 Este 8 Sudeste 3 -- -- 93
2019-04-18 18:00:00 9.7 3 Oeste 6 Oeste 1.4 -- -- 88
2019-04-18 17:00:00 10.5 2 Sudeste 12 Este 0.2 -- -- 79
2019-04-18 16:00:00 10.4 6 Nordeste 10 Este 0.4 -- -- 80
2019-04-18 15:00:00 9.5 3 Este 9 Sudeste 1.6 -- -- 90
2019-04-18 14:00:00 9.7 3 Sudeste 7 Sudeste 1.8 -- -- 90
2019-04-18 13:00:00 9.7 3 Este 9 Sudeste 1 -- -- 88
2019-04-18 12:00:00 9.4 9 Este 17 Nordeste 0.2 -- -- 88
2019-04-18 11:00:00 9.3 7 Sudeste 14 Sudeste 0 -- -- 84
2019-04-18 10:00:00 9 10 Sudeste 20 Sudeste 0 -- -- 88
2019-04-18 09:00:00 8.6 9 Este 15 Este 0.4 -- -- 93
2019-04-18 08:00:00 8.4 9 Este 15 Este 0.4 -- -- 94
2019-04-18 07:00:00 8.5 6 Este 12 Nordeste 0.6 -- -- 92
2019-04-18 06:00:00 8.8 3 Este 19 Sur 0.6 -- -- 88
2019-04-18 05:00:00 9.4 9 Sur 27 Sudoeste 0.8 -- -- 85
2019-04-18 04:00:00 10.1 12 Oeste 32 Sudoeste 3.2 -- -- 87
2019-04-18 03:00:00 12 12 Sudeste 22 Este 0 -- -- 86
2019-04-18 02:00:00 11.6 2 Este 29 Sudeste 0 -- -- 88
2019-04-18 01:00:00 11.5 16 Este 30 Este 0 -- -- 92
2019-04-18 00:00:00 11.5 17 Este 20 Sudeste 0.8 -- -- 93
2019-04-17 23:00:00 12.1 12 Este 17 Este 2.2 -- -- 88
2019-04-17 22:00:00 13.2 11 Sudeste 28 Este 0.8 -- -- 79
2019-04-17 21:00:00 15.9 8 Sudeste 20 Este 0 -- -- 56
2019-04-17 20:00:00 16.3 15 Este 30 Este 0 -- -- 60
2019-04-17 19:00:00 16.7 23 Este 33 Este 0 -- -- 60
2019-04-17 18:00:00 17.2 15 Este 26 Este 0 -- -- 58
2019-04-17 17:00:00 18.3 6 Sudeste 28 Sur 0 -- -- 44
2019-04-17 16:00:00 18.5 18 Sudeste 35 Sur 0 -- -- 44
2019-04-17 15:00:00 19 18 Sur 40 Sudeste 0 -- -- 44
2019-04-17 14:00:00 17.6 13 Sur 29 Sudeste 0 -- -- 53
2019-04-17 13:00:00 16.1 17 Sudeste 35 Sudeste 0 -- -- 57
2019-04-17 12:00:00 15.1 16 Sudeste 31 Sudeste 0 -- -- 58
2019-04-17 11:00:00 12.9 11 Este 22 Este 0 -- -- 67
2019-04-17 10:00:00 10 6 Este 20 Este 0 -- -- 76
2019-04-17 09:00:00 7.7 11 Este 19 Este 0 -- -- 85
2019-04-17 08:00:00 7.6 7 Este 14 Este 0 -- -- 82
2019-04-17 07:00:00 8.6 10 Este 18 Nordeste 0 -- -- 79
2019-04-17 06:00:00 8.8 4 Este 13 Este 0 -- -- 77
2019-04-17 05:00:00 8.8 2 Norte 6 Nordeste 0 -- -- 78
2019-04-17 04:00:00 6.8 3 Sudoeste 13 Este 0 -- -- 85
2019-04-17 03:00:00 8.2 5 Este 14 Este 0 -- -- 83
2019-04-17 02:00:00 7.9 0 Calma 5 Oeste 0 -- -- 83
2019-04-17 01:00:00 9.4 3 Oeste 6 Oeste 0 -- -- 77
2019-04-17 00:00:00 10.9 2 Sur 16 Este 0 -- -- 72
2019-04-16 23:00:00 11.2 4 Este 11 Este 0 -- -- 69
2019-04-16 22:00:00 12.5 6 Este 11 Este 0 -- -- 55
2019-04-16 21:00:00 15.1 3 Sur 17 Sudoeste 0 -- -- 39
2019-04-16 20:00:00 17.4 4 Sur 20 Sur 0 -- -- 33
2019-04-16 19:00:00 17.6 10 Sudeste 23 Sudoeste 0 -- -- 34
2019-04-16 18:00:00 18.3 10 Sur 22 Sudoeste 0 -- -- 36
2019-04-16 17:00:00 18 12 Sur 21 Sudeste 0 -- -- 37
2019-04-16 16:00:00 17.4 11 Sudeste 23 Sudoeste 0 -- -- 40
2019-04-16 15:00:00 16.8 12 Sudeste 26 Sudeste 0 -- -- 39
2019-04-16 14:00:00 15.9 11 Sur 29 Sudoeste 0 -- -- 44
2019-04-16 13:00:00 14.9 10 Sudeste 22 Sur 0 -- -- 50
2019-04-16 12:00:00 13.2 8 Sudoeste 15 Oeste 0 -- -- 59
2019-04-16 11:00:00 10.9 2 Este 7 Este 0 -- -- 70
2019-04-16 10:00:00 9.3 2 Nordeste 6 Sudeste 0 -- -- 78
2019-04-16 09:00:00 5.4 4 Este 9 Noroeste 0 -- -- 91
2019-04-16 08:00:00 4.4 7 Noroeste 10 Oeste 0 -- -- 92
2019-04-16 07:00:00 6 2 Este 5 Norte 0 -- -- 91
2019-04-16 06:00:00 5.8 2 Este 5 Oeste 0 -- -- 91
2019-04-16 05:00:00 6.1 0 Calma 4 Este 0 -- -- 89
2019-04-16 04:00:00 6.7 0 Calma 6 Este 0 -- -- 86
2019-04-16 03:00:00 7.5 2 Este 8 Norte 0 -- -- 85
2019-04-16 02:00:00 7.8 4 Sudeste 10 Este 0 -- -- 83
2019-04-16 01:00:00 8.3 4 Norte 22 Nordeste 0 -- -- 82
2019-04-16 00:00:00 8.8 8 Este 15 Este 0 -- -- 82
2019-04-15 23:00:00 9.4 6 Norte 13 Noroeste 0 -- -- 82
2019-04-15 22:00:00 9.7 6 Sudeste 13 Este 0 -- -- 88
2019-04-15 21:00:00 9.7 5 Norte 21 Norte 0.2 -- -- 87
2019-04-15 20:00:00 9.9 12 Norte 24 Norte 0 -- -- 87
2019-04-15 19:00:00 11.8 12 Norte 27 Noroeste 0 -- -- 82
2019-04-15 18:00:00 15.1 12 Oeste 23 Oeste 0 -- -- 79
2019-04-15 17:00:00 15 9 Noroeste 17 Noroeste 0 -- -- 80
2019-04-15 16:00:00 13.7 4 Oeste 76 Sudoeste 0.2 -- -- 83
2019-04-15 15:00:00 21.6 23 Sur 45 Sudoeste 0 -- -- 46
2019-04-15 14:00:00 21.7 20 Sur 41 Sudoeste 0 -- -- 47
2019-04-15 13:00:00 20.2 19 Sur 40 Sudoeste 0 -- -- 56
2019-04-15 12:00:00 18.6 13 Sur 28 Sudeste 0 -- -- 58
2019-04-15 11:00:00 17.4 10 Sudeste 19 Sudeste 0 -- -- 60
2019-04-15 10:00:00 13.3 2 Sur 9 Nordeste 0 -- -- 77
2019-04-15 09:00:00 11.4 3 Este 9 Oeste 0 -- -- 83
2019-04-15 08:00:00 9.7 3 Oeste 8 Noroeste 0 -- -- 89
2019-04-15 07:00:00 8 4 Oeste 9 Noroeste 0 -- -- 92
2019-04-15 06:00:00 7.7 2 Norte 7 Noroeste 0 -- -- 91
2019-04-15 05:00:00 7.5 2 Norte 7 Noroeste 0 -- -- 91
2019-04-15 04:00:00 7.2 0 Calma 8 Oeste 0 -- -- 91
2019-04-15 03:00:00 7.3 2 Noroeste 6 Oeste 0 -- -- 90
2019-04-15 02:00:00 8.6 2 Oeste 6 Este 0 -- -- 85
2019-04-15 01:00:00 9.2 3 Sudoeste 8 Oeste 0 -- -- 85
2019-04-15 00:00:00 10.7 0 Calma 6 Oeste 0 -- -- 79
2019-04-14 23:00:00 12.6 0 Calma 5 Noroeste 0 -- -- 72
2019-04-14 22:00:00 15.2 2 Oeste 9 Norte 0 -- -- 63
2019-04-14 21:00:00 17.3 3 Noroeste 16 Sudoeste 0 -- -- 57
2019-04-14 20:00:00 19.3 6 Sur 15 Sur 0 -- -- 52
2019-04-14 19:00:00 20.7 8 Este 21 Este 0 -- -- 48
2019-04-14 18:00:00 21.4 9 Este 19 Sudeste 0 -- -- 44
2019-04-14 17:00:00 20.9 13 Este 21 Sudeste 0 -- -- 44
2019-04-14 16:00:00 20.7 4 Este 21 Sudeste 0 -- -- 43
2019-04-14 15:00:00 21 4 Este 19 Este 0 -- -- 44
2019-04-14 14:00:00 20.2 8 Sur 17 Sudeste 0 -- -- 45
2019-04-14 13:00:00 19.1 4 Oeste 11 Sudeste 0 -- -- 44
2019-04-14 12:00:00 17.8 5 Este 10 Sudeste 0 -- -- 45
2019-04-14 11:00:00 14.3 3 Este 6 Nordeste 0 -- -- 56
2019-04-14 10:00:00 9.8 2 Este 6 Sudoeste 0 -- -- 73
2019-04-14 09:00:00 6.1 3 Oeste 8 Oeste 0 -- -- 85
2019-04-14 08:00:00 5 4 Noroeste 10 Oeste 0 -- -- 86
2019-04-14 07:00:00 6 0 Calma 5 Nordeste 0 -- -- 80
2019-04-14 06:00:00 7.3 3 Sudeste 12 Oeste 0 -- -- 79
2019-04-14 05:00:00 6.8 4 Oeste 11 Noroeste 0 -- -- 80
2019-04-14 04:00:00 7.4 8 Oeste 12 Noroeste 0 -- -- 78
2019-04-14 03:00:00 8.8 2 Oeste 8 Noroeste 0 -- -- 72
2019-04-14 02:00:00 9.2 5 Oeste 10 Noroeste 0 -- -- 73
2019-04-14 01:00:00 9.5 0 Calma 6 Oeste 0 -- -- 69
2019-04-14 00:00:00 10.2 0 Calma 4 Oeste 0 -- -- 66
2019-04-13 23:00:00 11.7 0 Calma 5 Nordeste 0 -- -- 60
2019-04-13 22:00:00 12.8 4 Este 6 Este 0 -- -- 57
2019-04-13 21:00:00 14.1 4 Nordeste 18 Norte 0 -- -- 51
2019-04-13 20:00:00 16.3 9 Noroeste 27 Oeste 0 -- -- 46
2019-04-13 19:00:00 20 13 Oeste 29 Sudoeste 0 -- -- 33
2019-04-13 18:00:00 19.6 14 Sudoeste 30 Sudoeste 0 -- -- 33
2019-04-13 17:00:00 20.3 12 Sudoeste 27 Sudoeste 0 -- -- 33
2019-04-13 16:00:00 19.7 13 Sudoeste 29 Oeste 0 -- -- 33
2019-04-13 15:00:00 19.5 9 Sur 29 Sudoeste 0 -- -- 37
2019-04-13 14:00:00 18.4 11 Sur 25 Sur 0 -- -- 35
2019-04-13 13:00:00 16.6 6 Noroeste 12 Oeste 0 -- -- 41
2019-04-13 12:00:00 12.2 4 Este 12 Este 0 -- -- 58
2019-04-13 11:00:00 5.7 7 Este 10 Este 0 -- -- 88
2019-04-13 10:00:00 0.3 4 Este 6 Este 0 -- -- 98
2019-04-13 09:00:00 -2.3 3 Este 4 Este 0 -- -- 97
2019-04-13 08:00:00 -3.3 3 Este 4 Nordeste 0 -- -- 96
2019-04-13 07:00:00 -3.5 0 Calma 4 Sudoeste 0 -- -- 96
2019-04-13 06:00:00 -2.9 3 Sudoeste 5 Sudoeste 0 -- -- 95
2019-04-13 05:00:00 -2 0 Calma 5 Oeste 0 -- -- 95
2019-04-13 04:00:00 -1.3 2 Oeste 10 Oeste 0 -- -- 94
2019-04-13 03:00:00 -0.5 7 Oeste 9 Oeste 0 -- -- 93
2019-04-13 02:00:00 0.6 4 Oeste 6 Oeste 0 -- -- 91
2019-04-13 01:00:00 1.8 3 Oeste 6 Oeste 0 -- -- 90
2019-04-13 00:00:00 3.5 2 Oeste 5 Noroeste 0 -- -- 85
2019-04-12 23:00:00 5.7 0 Calma 8 Noroeste 0 -- -- 81
2019-04-12 22:00:00 9.1 7 Este 18 Nordeste 0 -- -- 69
2019-04-12 21:00:00 11.2 8 Norte 14 Nordeste 0 -- -- 65
2019-04-12 20:00:00 14.1 9 Nordeste 17 Este 0 -- -- 45
2019-04-12 19:00:00 15.7 10 Nordeste 21 Este 0 -- -- 38
2019-04-12 18:00:00 16.2 6 Este 26 Norte 0 -- -- 38
2019-04-12 17:00:00 16.2 8 Este 26 Nordeste 0 -- -- 40
2019-04-12 16:00:00 15.5 11 Noroeste 28 Oeste 0 -- -- 37
2019-04-12 15:00:00 15.2 7 Sur 19 Sudeste 0 -- -- 42
2019-04-12 14:00:00 14.1 8 Sur 18 Este 0 -- -- 41
2019-04-12 13:00:00 12.4 6 Sur 14 Sudeste 0 -- -- 46
2019-04-12 12:00:00 11.3 6 Sur 15 Sudeste 0 -- -- 56
2019-04-12 11:00:00 8.1 4 Sudoeste 11 Sudoeste 0 -- -- 73
2019-04-12 10:00:00 4.4 4 Sudoeste 7 Sudoeste 0 -- -- 94
2019-04-12 09:00:00 0.2 3 Oeste 6 Oeste 0 -- -- 97
2019-04-12 08:00:00 -1.1 5 Oeste 6 Sudoeste 0 -- -- 96
2019-04-12 07:00:00 -1.7 3 Oeste 8 Oeste 0 -- -- 96
2019-04-12 06:00:00 -1 4 Oeste 7 Oeste 0 -- -- 94
2019-04-12 05:00:00 0.3 4 Noroeste 8 Noroeste 0 -- -- 93
2019-04-12 04:00:00 1.5 6 Oeste 9 Noroeste 0 -- -- 90
2019-04-12 03:00:00 3.8 4 Norte 13 Este 0 -- -- 86
2019-04-12 02:00:00 5.2 6 Este 12 Este 0 -- -- 84
2019-04-12 01:00:00 4.9 5 Este 13 Sudoeste 0 -- -- 89
2019-04-12 00:00:00 5.9 4 Nordeste 13 Nordeste 0 -- -- 86
2019-04-11 23:00:00 6.3 4 Nordeste 17 Norte 0 -- -- 83
2019-04-11 22:00:00 6.6 3 Este 19 Norte 0 -- -- 82
2019-04-11 21:00:00 6.7 6 Norte 28 Noroeste 0 -- -- 81
2019-04-11 20:00:00 7.6 12 Norte 35 Norte 0 -- -- 78
2019-04-11 19:00:00 9.2 19 Norte 40 Norte 0 -- -- 71
2019-04-11 18:00:00 10.4 15 Norte 40 Norte 0 -- -- 68
2019-04-11 17:00:00 11.4 16 Norte 37 Norte 0 -- -- 63
2019-04-11 16:00:00 10.4 12 Norte 30 Norte 0 -- -- 64
2019-04-11 15:00:00 10.4 14 Norte 27 Norte 0 -- -- 64
2019-04-11 14:00:00 10.1 12 Norte 27 Norte 0 -- -- 63
2019-04-11 13:00:00 9.7 10 Norte 22 Nordeste 0 -- -- 61
2019-04-11 12:00:00 9.3 8 Noroeste 14 Oeste 0 -- -- 61
2019-04-11 11:00:00 8.2 3 Oeste 6 Sudeste 0 -- -- 69
2019-04-11 10:00:00 3.7 3 Noroeste 8 Oeste 0 -- -- 96
2019-04-11 09:00:00 0.2 4 Oeste 10 Sudoeste 0 -- -- 97
2019-04-11 08:00:00 -0.8 4 Oeste 10 Sudoeste 0 -- -- 96
2019-04-11 07:00:00 -0.1 0 Calma 9 Sudoeste 0 -- -- 95
2019-04-11 06:00:00 1 3 Noroeste 9 Oeste 0 -- -- 95
2019-04-11 05:00:00 1.7 2 Norte 9 Nordeste 0 -- -- 93
2019-04-11 04:00:00 2.7 3 Sudeste 14 Norte 0 -- -- 90
2019-04-11 03:00:00 3.9 6 Norte 14 Norte 0 -- -- 89
2019-04-11 02:00:00 5 5 Norte 14 Nordeste 0.2 -- -- 86
2019-04-11 01:00:00 5.1 3 Sudeste 9 Este 0 -- -- 88
2019-04-11 00:00:00 4.7 2 Sur 7 Noroeste 0 -- -- 89
2019-04-10 23:00:00 5 2 Sur 11 Noroeste 0 -- -- 86
2019-04-10 22:00:00 6 9 Norte 20 Norte 0 -- -- 82
2019-04-10 21:00:00 6.3 4 Nordeste 24 Norte 0 -- -- 82
2019-04-10 20:00:00 8 4 Norte 22 Oeste 0 -- -- 78
2019-04-10 19:00:00 7.3 12 Noroeste 27 Nordeste 0 -- -- 78
2019-04-10 18:00:00 8.8 14 Nordeste 30 Noroeste 0 -- -- 77
2019-04-10 17:00:00 7.6 17 Noroeste 32 Norte 0.6 -- -- 83
2019-04-10 16:00:00 10.3 9 Oeste 19 Norte 0 -- -- 64
2019-04-10 15:00:00 10.3 11 Sudoeste 27 Sudoeste 0.2 -- -- 66
2019-04-10 14:00:00 10.7 11 Sudoeste 17 Oeste 0 -- -- 62
2019-04-10 13:00:00 8.8 5 Sudoeste 10 Sudoeste 0 -- -- 66
2019-04-10 12:00:00 9.5 4 Este 14 Este 0 -- -- 67
2019-04-10 11:00:00 7.7 7 Este 12 Este 0 -- -- 89
2019-04-10 10:00:00 4.5 2 Sudeste 7 Sudeste 0 -- -- 100
2019-04-10 09:00:00 1.1 3 Este 9 Oeste 0 -- -- 99
2019-04-10 08:00:00 0.2 2 Oeste 8 Oeste 0 -- -- 98
2019-04-10 07:00:00 0.8 5 Noroeste 10 Oeste 0 -- -- 98
2019-04-10 06:00:00 1.7 3 Oeste 5 Sudoeste 0 -- -- 98
2019-04-10 05:00:00 2.2 2 Noroeste 10 Este 0 -- -- 98
2019-04-10 04:00:00 2.4 2 Sudeste 7 Sudoeste 0 -- -- 98
2019-04-10 03:00:00 2.3 3 Norte 8 Oeste 0 -- -- 97
2019-04-10 02:00:00 1.8 3 Sudoeste 8 Sudoeste 0 -- -- 97
2019-04-10 01:00:00 1 0 Calma 7 Oeste 0 -- -- 96
2019-04-10 00:00:00 1.7 3 Este 6 Oeste 0 -- -- 96
2019-04-09 23:00:00 2.5 0 Calma 6 Oeste 0 -- -- 94
2019-04-09 22:00:00 3.9 3 Nordeste 6 Norte 0 -- -- 93
2019-04-09 21:00:00 5.2 3 Oeste 9 Este 0 -- -- 91
2019-04-09 20:00:00 6.4 6 Este 14 Sudeste 0 -- -- 88
2019-04-09 19:00:00 5.4 10 Este 18 Norte 0.6 -- -- 90
2019-04-09 18:00:00 5.1 15 Norte 37 Noroeste 1 -- -- 85
2019-04-09 17:00:00 8.2 18 Noroeste 30 Noroeste 0 -- -- 70
2019-04-09 16:00:00 11.6 12 Oeste 25 Sudoeste 0 -- -- 59
2019-04-09 15:00:00 10.8 16 Sudoeste 28 Oeste 0 -- -- 63
2019-04-09 14:00:00 8.7 19 Oeste 33 Sudoeste 0 -- -- 77
2019-04-09 13:00:00 8.9 6 Oeste 27 Sudoeste 0 -- -- 74
2019-04-09 12:00:00 8.5 13 Sudoeste 32 Sudoeste 0 -- -- 72
2019-04-09 11:00:00 7.2 14 Sudoeste 28 Sudoeste 0 -- -- 80
2019-04-09 10:00:00 6.4 14 Sudoeste 26 Sudoeste 0 -- -- 81
2019-04-09 09:00:00 5.9 11 Sudoeste 23 Sudoeste 0 -- -- 84
2019-04-09 08:00:00 5 6 Sudoeste 14 Oeste 0 -- -- 85
2019-04-09 07:00:00 4.7 7 Oeste 22 Oeste 0 -- -- 84
2019-04-09 06:00:00 4.7 10 Oeste 22 Oeste 0 -- -- 82
2019-04-09 05:00:00 4.8 12 Oeste 21 Oeste 0 -- -- 81
2019-04-09 04:00:00 4.5 7 Oeste 15 Oeste 0 -- -- 80
2019-04-09 03:00:00 5.2 9 Oeste 22 Oeste 0 -- -- 77
2019-04-09 02:00:00 5.7 14 Oeste 26 Oeste 0 -- -- 75
2019-04-09 01:00:00 5.1 7 Oeste 15 Oeste 0 -- -- 74
2019-04-09 00:00:00 4.6 4 Noroeste 15 Noroeste 0 -- -- 74
2019-04-08 23:00:00 6.6 5 Noroeste 13 Noroeste 0 -- -- 67
2019-04-08 22:00:00 7.9 2 Sur 9 Noroeste 0 -- -- 63
2019-04-08 21:00:00 10.2 5 Sur 23 Oeste 0 -- -- 52
2019-04-08 20:00:00 12 12 Oeste 30 Oeste 0 -- -- 48
2019-04-08 19:00:00 12.7 18 Sudoeste 32 Sudoeste 0 -- -- 49
2019-04-08 18:00:00 14.2 15 Sudoeste 36 Sudoeste 0 -- -- 42
2019-04-08 17:00:00 14.8 20 Sudoeste 36 Sudoeste 0 -- -- 40
2019-04-08 16:00:00 13.9 16 Sudoeste 32 Sudoeste 0 -- -- 47
2019-04-08 15:00:00 12.8 23 Oeste 39 Oeste 0 -- -- 44
2019-04-08 14:00:00 13.5 12 Sudoeste 25 Oeste 0 -- -- 53
2019-04-08 13:00:00 11.1 3 Este 12 Sudoeste 0 -- -- 67
2019-04-08 12:00:00 9.5 5 Sudeste 10 Sudeste 0 -- -- 75
2019-04-08 11:00:00 7.7 5 Oeste 10 Sudoeste 0 -- -- 92
2019-04-08 10:00:00 6.1 3 Este 9 Sudeste 0 -- -- 96
2019-04-08 09:00:00 5.2 3 Sudeste 6 Este 0 -- -- 97
2019-04-08 08:00:00 4.8 3 Oeste 14 Oeste 0 -- -- 97
2019-04-08 07:00:00 4.8 6 Sudoeste 10 Oeste 0 -- -- 97
2019-04-08 06:00:00 4.8 6 Noroeste 9 Oeste 0.4 -- -- 96
2019-04-08 05:00:00 4.6 3 Sudoeste 8 Oeste 0 -- -- 95
2019-04-08 04:00:00 4.7 5 Oeste 10 Oeste 0 -- -- 92
2019-04-08 03:00:00 4.8 5 Oeste 15 Oeste 0 -- -- 90
2019-04-08 02:00:00 4.7 8 Oeste 22 Oeste 0 -- -- 90
2019-04-08 01:00:00 4.9 10 Oeste 21 Oeste 0 -- -- 88
2019-04-08 00:00:00 4.6 12 Oeste 27 Oeste 0.4 -- -- 89
2019-04-07 23:00:00 5.4 9 Sudoeste 23 Sudoeste 0.4 -- -- 85
2019-04-07 22:00:00 5.8 12 Sudoeste 26 Sudoeste 0 -- -- 83
2019-04-07 21:00:00 6.6 14 Oeste 35 Oeste 0 -- -- 78
2019-04-07 20:00:00 8.8 23 Sudoeste 42 Sudoeste 0 -- -- 65
2019-04-07 19:00:00 10.4 17 Sudoeste 36 Sudoeste 0 -- -- 47
2019-04-07 18:00:00 11.4 15 Sur 36 Sudoeste 0 -- -- 43
2019-04-07 17:00:00 12.4 16 Sudoeste 32 Sudoeste 0 -- -- 43
2019-04-07 16:00:00 12.4 12 Sur 30 Sudoeste 0 -- -- 47
2019-04-07 15:00:00 11.3 11 Sur 28 Sur 0 -- -- 53
2019-04-07 14:00:00 11.1 11 Sur 22 Sudoeste 0 -- -- 53
2019-04-07 13:00:00 10.3 7 Sudoeste 19 Sudoeste 0 -- -- 60
2019-04-07 12:00:00 8.3 6 Oeste 12 Sudoeste 0 -- -- 70
2019-04-07 11:00:00 5.5 3 Noroeste 8 Este 0 -- -- 83
2019-04-07 10:00:00 1.5 2 Este 6 Sudoeste 0 -- -- 98
2019-04-07 09:00:00 0.2 3 Oeste 6 Noroeste 0 -- -- 98
2019-04-07 08:00:00 -0.1 2 Este 6 Este 0 -- -- 98
2019-04-07 07:00:00 -0.4 5 Oeste 9 Oeste 0 -- -- 98
2019-04-07 06:00:00 0.4 2 Este 6 Este 0 -- -- 98
2019-04-07 05:00:00 1.2 7 Este 9 Este 0 -- -- 98
2019-04-07 04:00:00 1 0 Calma 8 Este 0 -- -- 97
2019-04-07 03:00:00 1 4 Este 7 Este 0 -- -- 97
2019-04-07 02:00:00 0.9 3 Oeste 10 Noroeste 0 -- -- 97
2019-04-07 01:00:00 0.5 5 Oeste 8 Sudoeste 0 -- -- 96
2019-04-07 00:00:00 0.9 3 Oeste 6 Oeste 0 -- -- 95
2019-04-06 23:00:00 1.3 3 Nordeste 8 Nordeste 0 -- -- 93
2019-04-06 22:00:00 2 2 Este 13 Oeste 0.4 -- -- 93
2019-04-06 21:00:00 2.2 4 Norte 18 Noroeste 2.4 -- -- 90
2019-04-06 20:00:00 3.9 11 Noroeste 24 Noroeste 0 -- -- 86
2019-04-06 19:00:00 6.3 14 Noroeste 22 Sudoeste 0 -- -- 73
2019-04-06 18:00:00 7.7 5 Sudoeste 30 Sudoeste 0.2 -- -- 76
2019-04-06 17:00:00 5.4 7 Sudoeste 39 Oeste 0.2 -- -- 82
2019-04-06 16:00:00 7.3 26 Oeste 40 Oeste 0 -- -- 69
2019-04-06 15:00:00 8.8 19 Sudoeste 38 Sudoeste 0.2 -- -- 68
2019-04-06 14:00:00 8.6 15 Sudoeste 34 Sudoeste 0 -- -- 74
2019-04-06 13:00:00 6.3 21 Sudoeste 46 Sudoeste 0.2 -- -- 72
2019-04-06 12:00:00 6.6 24 Sudoeste 45 Sudoeste 0 -- -- 71
2019-04-06 11:00:00 4.9 14 Sudoeste 36 Sudoeste 0 -- -- 81
2019-04-06 10:00:00 3.7 12 Sudoeste 33 Sur 0 -- -- 85
2019-04-06 09:00:00 2.8 9 Sudoeste 33 Sudoeste 0 -- -- 88
2019-04-06 08:00:00 2.3 11 Oeste 28 Oeste 0 -- -- 87
2019-04-06 07:00:00 2.2 5 Sudoeste 21 Sudoeste 0 -- -- 83
2019-04-06 06:00:00 2 9 Sudoeste 21 Sudoeste 0 -- -- 86
2019-04-06 05:00:00 1.6 6 Oeste 15 Sudoeste 0 -- -- 91
2019-04-06 04:00:00 -0.4 4 Oeste 10 Noroeste 0 -- -- 95
2019-04-06 03:00:00 -2 3 Noroeste 10 Sudoeste 0 -- -- 93
2019-04-06 02:00:00 -1.4 0 Calma 9 Noroeste 0 -- -- 91
2019-04-06 01:00:00 0.1 3 Norte 10 Sudoeste 0 -- -- 89
2019-04-06 00:00:00 1.2 2 Este 10 Noroeste 0 -- -- 84
2019-04-05 23:00:00 2.1 4 Noroeste 12 Sudoeste 0 -- -- 79
2019-04-05 22:00:00 3.6 3 Norte 8 Sur 0 -- -- 77
2019-04-05 21:00:00 5.8 6 Sudeste 37 Sudoeste 0 -- -- 68
2019-04-05 20:00:00 8.3 13 Oeste 20 Oeste 0 -- -- 52
2019-04-05 19:00:00 8.5 10 Sudoeste 26 Sudoeste 0 -- -- 52
2019-04-05 18:00:00 9 12 Sudoeste 26 Sur 0 -- -- 50
2019-04-05 17:00:00 8.9 11 Sudoeste 30 Sudoeste 0 -- -- 52
2019-04-05 16:00:00 8.5 14 Sudoeste 30 Sudoeste 0 -- -- 51
2019-04-05 15:00:00 8.9 16 Sudoeste 30 Sudoeste 0 -- -- 48
2019-04-05 14:00:00 8.8 14 Sudoeste 36 Sudoeste 0 -- -- 59
2019-04-05 13:00:00 8.4 20 Oeste 35 Sudoeste 0 -- -- 64
2019-04-05 12:00:00 6.9 15 Sudoeste 27 Sudoeste 0 -- -- 74
2019-04-05 11:00:00 5.1 8 Sudoeste 19 Sudoeste 0 -- -- 87
2019-04-05 10:00:00 4.3 3 Este 23 Sudoeste 0.8 -- -- 89
2019-04-05 09:00:00 4.1 3 Sudeste 13 Sur 0 -- -- 90
2019-04-05 08:00:00 3.7 7 Sur 18 Sudoeste 0 -- -- 89
2019-04-05 07:00:00 3.6 8 Sur 32 Sudoeste 0 -- -- 88
2019-04-05 06:00:00 3.5 9 Sur 27 Sur 0 -- -- 88
2019-04-05 05:00:00 3.5 4 Sur 20 Sur 0.4 -- -- 87
2019-04-05 04:00:00 3.7 5 Sur 23 Sur 0.2 -- -- 86
2019-04-05 03:00:00 3.6 7 Sur 21 Sur 0 -- -- 87
2019-04-05 02:00:00 3.3 9 Sur 19 Sur 0 -- -- 87
2019-04-05 01:00:00 3.1 7 Sur 24 Sudoeste 0.2 -- -- 88
2019-04-05 00:00:00 3.1 9 Sur 18 Sur 0.2 -- -- 87
2019-04-04 23:00:00 3.5 6 Sur 24 Sudoeste 0 -- -- 86
2019-04-04 22:00:00 3.8 10 Sudoeste 29 Sudoeste 0.2 -- -- 84
2019-04-04 21:00:00 5.1 15 Sudoeste 49 Sudoeste 0 -- -- 73
2019-04-04 20:00:00 7.8 24 Sudoeste 44 Sudoeste 0 -- -- 50
2019-04-04 19:00:00 9.1 21 Sudoeste 42 Oeste 0 -- -- 40
2019-04-04 18:00:00 9.3 22 Sudoeste 46 Sudoeste 0 -- -- 40
2019-04-04 17:00:00 11.1 21 Sudoeste 42 Sudoeste 0 -- -- 37
2019-04-04 16:00:00 10.2 22 Sudoeste 44 Oeste 0 -- -- 40
2019-04-04 15:00:00 10.2 21 Sudoeste 43 Sudoeste 0 -- -- 42
2019-04-04 14:00:00 9.5 18 Sudoeste 37 Sudoeste 0 -- -- 39
2019-04-04 13:00:00 8.8 18 Sudoeste 32 Sudoeste 0 -- -- 44
2019-04-04 12:00:00 7.2 15 Sudoeste 30 Sudoeste 0 -- -- 47
2019-04-04 11:00:00 4.3 7 Oeste 20 Sudoeste 0 -- -- 62
2019-04-04 10:00:00 -0.1 3 Este 5 Oeste 0 -- -- 86
2019-04-04 09:00:00 -5.7 3 Oeste 6 Sudoeste 0 -- -- 94
2019-04-04 08:00:00 -6.9 3 Oeste 10 Oeste 0 -- -- 93
2019-04-04 07:00:00 -5.9 3 Este 10 Noroeste 0 -- -- 94
2019-04-04 06:00:00 -5.2 6 Noroeste 9 Noroeste 0 -- -- 93
2019-04-04 05:00:00 -5 5 Oeste 10 Oeste 0 -- -- 92
2019-04-04 04:00:00 -4.7 6 Sudoeste 10 Oeste 0 -- -- 90
2019-04-04 03:00:00 -4 5 Oeste 10 Sudoeste 0 -- -- 88
2019-04-04 02:00:00 -2.8 3 Oeste 6 Sudoeste 0 -- -- 86
2019-04-04 01:00:00 -2 4 Sudoeste 12 Oeste 0 -- -- 83
2019-04-04 00:00:00 -0.3 5 Oeste 16 Noroeste 0 -- -- 83
2019-04-03 23:00:00 0.9 9 Noroeste 18 Noroeste 0 -- -- 74
2019-04-03 22:00:00 1 3 Norte 34 Oeste 0 -- -- 64
2019-04-03 21:00:00 2.8 16 Noroeste 24 Noroeste 0 -- -- 56
2019-04-03 20:00:00 4.6 9 Noroeste 31 Noroeste 0 -- -- 55
2019-04-03 19:00:00 4.8 16 Noroeste 38 Noroeste 0 -- -- 63
2019-04-03 18:00:00 6.5 14 Noroeste 44 Noroeste 0 -- -- 54
2019-04-03 17:00:00 7.7 16 Noroeste 35 Noroeste 0 -- -- 57
2019-04-03 16:00:00 6.6 14 Noroeste 27 Noroeste 0 -- -- 60
2019-04-03 15:00:00 5.1 11 Noroeste 27 Noroeste 0.2 -- -- 71
2019-04-03 14:00:00 3.5 19 Norte 39 Norte 1 -- -- 78
2019-04-03 13:00:00 6.8 6 Noroeste 24 Norte 0 -- -- 65
2019-04-03 12:00:00 6.6 11 Norte 23 Norte 0.2 -- -- 68
2019-04-03 11:00:00 4.6 13 Norte 22 Norte 0 -- -- 77
2019-04-03 10:00:00 4.9 2 Este 8 Este 0 -- -- 81
2019-04-03 09:00:00 3.8 3 Sudeste 12 Sudeste 0 -- -- 86
2019-04-03 08:00:00 3.8 7 Este 15 Nordeste 0 -- -- 86
2019-04-03 07:00:00 4.1 3 Sudoeste 6 Noroeste 0 -- -- 85
2019-04-03 06:00:00 4.6 2 Este 9 Este 0 -- -- 86
2019-04-03 05:00:00 4.8 3 Sudeste 14 Sudeste 0 -- -- 86
2019-04-03 04:00:00 4.9 6 Norte 13 Norte 0 -- -- 84
2019-04-03 03:00:00 5.4 3 Noroeste 14 Norte 0 -- -- 84
2019-04-03 02:00:00 5.7 5 Nordeste 10 Nordeste 0 -- -- 82
2019-04-03 01:00:00 5.9 4 Nordeste 18 Nordeste 0 -- -- 82
2019-04-03 00:00:00 6.3 3 Nordeste 24 Nordeste 0 -- -- 81
2019-04-02 23:00:00 6.4 8 Norte 27 Noroeste 0 -- -- 81
2019-04-02 22:00:00 6.8 17 Noroeste 34 Noroeste 0 -- -- 83
2019-04-02 21:00:00 7.1 9 Norte 28 Noroeste 0 -- -- 82
2019-04-02 20:00:00 8 12 Norte 30 Noroeste 0 -- -- 79
2019-04-02 19:00:00 8.4 14 Noroeste 34 Norte 0 -- -- 82
2019-04-02 18:00:00 10.1 15 Noroeste 29 Noroeste 0 -- -- 71
2019-04-02 17:00:00 12.5 15 Norte 32 Noroeste 0 -- -- 61
2019-04-02 16:00:00 13.3 11 Norte 23 Este 0 -- -- 53
2019-04-02 15:00:00 14.3 14 Este 25 Sudeste 0 -- -- 49
2019-04-02 14:00:00 12.7 9 Norte 30 Oeste -- -- -- 52
2019-04-02 13:00:00 12.8 9 Nordeste 22 Noroeste -- -- -- 54
2019-04-02 12:00:00 10.7 10 Noroeste 16 Noroeste 0 -- -- 64
2019-04-02 11:00:00 8 8 Sudeste 17 Sudeste 0 -- -- 76
2019-04-02 10:00:00 4.2 3 Este 6 Este 0 -- -- 89
2019-04-02 09:00:00 -0.3 3 Oeste 7 Oeste 0 -- -- 96
2019-04-02 08:00:00 -0.9 3 Oeste 6 Noroeste 0 -- -- 95
2019-04-02 07:00:00 0.1 3 Oeste 8 Noroeste 0 -- -- 94
2019-04-02 06:00:00 1 4 Oeste 9 Oeste 0 -- -- 93
2019-04-02 05:00:00 2 5 Oeste 8 Noroeste 0 -- -- 91
2019-04-02 04:00:00 4 2 Este 6 Oeste 0 -- -- 89
2019-04-02 03:00:00 5.3 3 Norte 5 Noroeste 0 -- -- 86
2019-04-02 02:00:00 6.3 0 Calma 5 Nordeste 0 -- -- 85
2019-04-02 01:00:00 7.4 3 Nordeste 7 Nordeste 0 -- -- 82
2019-04-02 00:00:00 8 3 Este 7 Este 0 -- -- 79
2019-04-01 23:00:00 8.8 2 Este 6 Sudeste 0 -- -- 78
2019-04-01 22:00:00 9.6 4 Este 17 Este 0 -- -- 75
2019-04-01 21:00:00 10.5 9 Este 22 Norte 0 -- -- 70
2019-04-01 20:00:00 12 13 Norte 24 Norte 0 -- -- 63
2019-04-01 19:00:00 13.6 13 Norte 24 Norte 0 -- -- 60
2019-04-01 18:00:00 14.6 15 Este 29 Este 0 -- -- 52
2019-04-01 17:00:00 16.2 7 Norte 21 Este 0 -- -- 47
2019-04-01 16:00:00 14.5 7 Oeste 18 Noroeste 0 -- -- 51
2019-04-01 15:00:00 13.9 8 Norte 16 Noroeste 0 -- -- 50
2019-04-01 14:00:00 13.5 6 Norte 22 Sudeste 0 -- -- 51
2019-04-01 13:00:00 14 8 Sudeste 22 Este 0 -- -- 54
2019-04-01 12:00:00 12.1 9 Este 15 Este 0 -- -- 58
2019-04-01 11:00:00 9.3 9 Este 13 Este 0 -- -- 67
2019-04-01 10:00:00 3.1 2 Oeste 4 Oeste 0 -- -- 90
2019-04-01 09:00:00 0.8 4 Oeste 9 Oeste 0 -- -- 92
2019-04-01 08:00:00 0.7 3 Noroeste 10 Oeste 0 -- -- 91
2019-04-01 07:00:00 0.8 5 Oeste 10 Oeste 0 -- -- 92
2019-04-01 06:00:00 -0.7 0 Calma 10 Oeste 0 -- -- 91
2019-04-01 05:00:00 -0.8 4 Oeste 9 Oeste 0 -- -- 89
2019-04-01 04:00:00 0 6 Oeste 9 Oeste 0 -- -- 89
2019-04-01 03:00:00 0.2 4 Oeste 7 Oeste 0 -- -- 85
2019-04-01 02:00:00 1.5 4 Oeste 8 Oeste 0 -- -- 82
2019-04-01 01:00:00 2.9 4 Oeste 8 Oeste 0 -- -- 78
2019-04-01 00:00:00 4.5 4 Oeste 8 Noroeste 0 -- -- 73
2019-03-31 23:00:00 8.1 2 Este 5 Sudeste 0 -- -- 59
2019-03-31 22:00:00 10.9 3 Este 15 Nordeste 0 -- -- 51
2019-03-31 21:00:00 12.8 12 Nordeste 23 Nordeste 0 -- -- 47
2019-03-31 20:00:00 15.2 12 Nordeste 27 Nordeste 0 -- -- 40
2019-03-31 19:00:00 16.4 14 Nordeste 31 Este 0 -- -- 35
2019-03-31 18:00:00 17.6 17 Este 31 Sudeste 0 -- -- 30
2019-03-31 17:00:00 16.3 15 Este 31 Este 0 -- -- 31
2019-03-31 16:00:00 15.9 10 Norte 32 Este 0 -- -- 32
2019-03-31 15:00:00 17.3 19 Este 37 Este 0 -- -- 36
2019-03-31 14:00:00 16.6 21 Este 37 Este 0 -- -- 35
2019-03-31 13:00:00 15.7 13 Sudeste 24 Sudeste 0 -- -- 42
2019-03-31 12:00:00 12.7 6 Sudeste 12 Sudeste 0 -- -- 51
2019-03-31 11:00:00 8.4 4 Este 7 Este 0 -- -- 66
2019-03-31 10:00:00 2.7 2 Oeste 5 Sudoeste 0 -- -- 87
2019-03-31 09:00:00 -0.3 0 Calma 5 Oeste 0 -- -- 94
2019-03-31 08:00:00 -1.4 3 Sudoeste 8 Oeste 0 -- -- 93
2019-03-31 07:00:00 -0.3 0 Calma 6 Oeste 0 -- -- 92
2019-03-31 06:00:00 0.8 2 Oeste 8 Oeste 0 -- -- 89
2019-03-31 05:00:00 1.3 3 Norte 7 Noroeste 0 -- -- 91
2019-03-31 03:00:00 3.6 0 Calma 5 Oeste 0 -- -- 83
2019-03-31 01:00:00 6.1 0 Calma 4 Este 0 -- -- 80
2019-03-31 00:00:00 7.1 2 Noroeste 6 Oeste 0 -- -- 77
2019-03-30 23:00:00 7.7 3 Oeste 5 Noroeste 0 -- -- 76
2019-03-30 22:00:00 9 0 Calma 6 Sudeste 0 -- -- 71
2019-03-30 21:00:00 10 3 Nordeste 9 Nordeste 0 -- -- 66
2019-03-30 20:00:00 12.3 7 Norte 22 Norte 0 -- -- 57
2019-03-30 19:00:00 14 11 Norte 20 Norte 0 -- -- 53
2019-03-30 18:00:00 15.8 4 Nordeste 17 Nordeste 0 -- -- 36
2019-03-30 17:00:00 16.1 9 Nordeste 21 Este 0 -- -- 34
2019-03-30 16:00:00 18.7 3 Nordeste 16 Sudeste 0 -- -- 29
2019-03-30 15:00:00 17.7 8 Sudeste 21 Oeste 0 -- -- 31
2019-03-30 14:00:00 18 8 Sudoeste 19 Sur 0 -- -- 29
2019-03-30 13:00:00 17.4 7 Sudoeste 21 Oeste 0 -- -- 39
2019-03-30 12:00:00 15.6 9 Sudoeste 19 Sudoeste 0 -- -- 39
2019-03-30 11:00:00 13.2 4 Nordeste 10 Norte 0 -- -- 52
2019-03-30 10:00:00 10 6 Sudeste 10 Este 0 -- -- 57
2019-03-30 09:00:00 4 0 Calma 7 Oeste 0 -- -- 71
2019-03-30 08:00:00 -1 5 Oeste 7 Noroeste 0 -- -- 90
2019-03-30 07:00:00 -1.4 3 Oeste 11 Noroeste 0 -- -- 89
2019-03-30 06:00:00 -0.9 6 Oeste 12 Oeste 0 -- -- 86
2019-03-30 05:00:00 0 5 Noroeste 9 Noroeste 0 -- -- 83
2019-03-30 04:00:00 1.3 5 Noroeste 12 Noroeste 0 -- -- 78
2019-03-30 03:00:00 3.8 4 Noroeste 17 Oeste -- -- -- 65
2019-03-30 02:00:00 3 5 Noroeste 13 Sudoeste 0 -- -- 74
2019-03-30 01:00:00 2.8 4 Noroeste 10 Oeste 0 -- -- 73
2019-03-30 00:00:00 4.1 4 Oeste 10 Noroeste 0 -- -- 67
2019-03-29 23:00:00 7.9 3 Noroeste 17 Nordeste 0 -- -- 54
2019-03-29 22:00:00 8.9 3 Este 10 Este 0 -- -- 52
2019-03-29 21:00:00 10.1 3 Sudeste 12 Este 0 -- -- 47
2019-03-29 20:00:00 13.5 3 Este 12 Sur 0 -- -- 36
2019-03-29 19:00:00 17 7 Sur 19 Sudoeste 0 -- -- 29
2019-03-29 18:00:00 18 10 Sur 30 Sur 0 -- -- 27
2019-03-29 17:00:00 18.6 13 Sudeste 21 Sudeste 0 -- -- 27
2019-03-29 16:00:00 18.9 9 Sudeste 25 Sur 0 -- -- 28
2019-03-29 15:00:00 18.2 12 Sudoeste 24 Sudoeste 0 -- -- 30
2019-03-29 14:00:00 17.3 14 Sudoeste 24 Sudoeste 0 -- -- 31
2019-03-29 13:00:00 16 13 Sur 24 Sudoeste 0 -- -- 35
2019-03-29 12:00:00 13.5 4 Norte 13 Sudeste 0 -- -- 43
2019-03-29 11:00:00 7.5 6 Sudeste 11 Sudeste 0 -- -- 75
2019-03-29 10:00:00 1.8 6 Este 10 Este 0 -- -- 98
2019-03-29 09:00:00 -1.4 4 Este 6 Sudeste 0 -- -- 98
2019-03-29 08:00:00 -2.5 4 Este 6 Sudeste 0 -- -- 97
2019-03-29 07:00:00 -2.9 3 Norte 9 Oeste 0 -- -- 97
2019-03-29 06:00:00 -2.4 2 Oeste 10 Oeste 0 -- -- 96
2019-03-29 05:00:00 -2.6 5 Oeste 8 Oeste 0 -- -- 95
2019-03-29 04:00:00 -2.7 5 Oeste 6 Sudoeste 0 -- -- 95
2019-03-29 03:00:00 -1.7 3 Oeste 8 Oeste 0 -- -- 94
2019-03-29 02:00:00 -0.9 4 Oeste 8 Oeste 0 -- -- 93
2019-03-29 01:00:00 0.7 3 Oeste 8 Oeste 0 -- -- 92
2019-03-29 00:00:00 2.3 4 Noroeste 9 Noroeste 0 -- -- 90
2019-03-28 23:00:00 4.4 3 Este 10 Nordeste 0 -- -- 88
2019-03-28 22:00:00 6 2 Este 12 Norte 0 -- -- 79
2019-03-28 21:00:00 7.8 9 Norte 19 Norte 0 -- -- 75
2019-03-28 20:00:00 9.4 12 Norte 19 Norte 0 -- -- 69
2019-03-28 19:00:00 12.2 10 Norte 22 Norte 0 -- -- 59
2019-03-28 18:00:00 14.3 9 Nordeste 24 Nordeste 0 -- -- 52
2019-03-28 17:00:00 15.6 11 Nordeste 26 Este 0 -- -- 44
2019-03-28 16:00:00 15.7 12 Nordeste 29 Nordeste 0 -- -- 45
2019-03-28 15:00:00 15.2 17 Nordeste 32 Este 0 -- -- 41
2019-03-28 14:00:00 14.8 18 Este 31 Este 0 -- -- 40
2019-03-28 13:00:00 13.8 15 Nordeste 29 Nordeste 0 -- -- 41
2019-03-28 12:00:00 12.5 16 Este 29 Este 0 -- -- 44
2019-03-28 11:00:00 10.2 9 Sudeste 17 Sudeste 0 -- -- 56
2019-03-28 10:00:00 5.7 11 Este 15 Este 0 -- -- 75
2019-03-28 09:00:00 0.4 0 Calma 6 Noroeste 0 -- -- 85
2019-03-28 08:00:00 -4 3 Este 8 Noroeste 0 -- -- 93
2019-03-28 07:00:00 -5.2 4 Oeste 6 Oeste 0 -- -- 92
2019-03-28 06:00:00 -4.9 3 Sudoeste 5 Oeste 0 -- -- 91
2019-03-28 05:00:00 -4.2 2 Oeste 4 Oeste 0 -- -- 90
2019-03-28 04:00:00 -3.4 3 Oeste 6 Oeste 0 -- -- 88
2019-03-28 03:00:00 -2.6 0 Calma 5 Oeste 0 -- -- 84
2019-03-28 02:00:00 -1.3 2 Sudeste 5 Sudeste 0 -- -- 76
2019-03-28 01:00:00 0.4 2 Nordeste 10 Nordeste 0 -- -- 70
2019-03-28 00:00:00 1.8 5 Este 10 Este 0 -- -- 68
2019-03-27 23:00:00 2.7 2 Este 10 Sudeste 0 -- -- 58
2019-03-27 22:00:00 4.9 6 Sudeste 17 Norte 0 -- -- 51
2019-03-27 21:00:00 5.6 11 Norte 22 Norte 0 -- -- 68
2019-03-27 20:00:00 7.4 9 Norte 20 Noroeste 0 -- -- 51
2019-03-27 19:00:00 10.1 12 Norte 24 Norte 0 -- -- 45
2019-03-27 18:00:00 11.8 16 Norte 31 Noroeste 0 -- -- 45
2019-03-27 17:00:00 13.4 16 Norte 37 Nordeste 0 -- -- 45
2019-03-27 16:00:00 14.3 20 Norte 36 Norte 0 -- -- 42
2019-03-27 15:00:00 14.9 16 Norte 32 Norte 0 -- -- 38
2019-03-27 14:00:00 15.1 13 Nordeste 34 Nordeste 0 -- -- 35
2019-03-27 13:00:00 14.4 16 Este 31 Este 0 -- -- 29
2019-03-27 12:00:00 13.2 18 Nordeste 31 Nordeste 0 -- -- 26
2019-03-27 11:00:00 11.6 5 Sudeste 13 Sudeste 0 -- -- 38
2019-03-27 10:00:00 7.6 5 Este 9 Este 0 -- -- 59
2019-03-27 09:00:00 2 5 Este 8 Este 0 -- -- 75
2019-03-27 08:00:00 -2.6 2 Oeste 6 Oeste 0 -- -- 92
2019-03-27 07:00:00 -3.7 0 Calma 5 Oeste 0 -- -- 90
2019-03-27 06:00:00 -3.1 2 Sudoeste 5 Sudoeste 0 -- -- 88
2019-03-27 05:00:00 -2.7 2 Sudoeste 9 Noroeste 0 -- -- 87
2019-03-27 04:00:00 -1.3 5 Noroeste 10 Noroeste 0 -- -- 91
2019-03-27 03:00:00 -2.5 5 Sudoeste 9 Sudoeste 0 -- -- 81
2019-03-27 02:00:00 -1.4 3 Oeste 8 Oeste 0 -- -- 77
2019-03-27 01:00:00 -1.1 4 Oeste 8 Oeste 0 -- -- 74
2019-03-27 00:00:00 0.8 3 Oeste 7 Sudoeste 0 -- -- 65